createdAt,value
2023-05-01T00:02:12.373Z,5.85
2023-05-01T00:04:42.217Z,5.38
2023-05-01T00:07:12.166Z,5.00
2023-05-01T00:09:44.463Z,5.22
2023-05-01T00:12:14.631Z,4.75
2023-05-01T00:14:44.704Z,5.30
2023-05-01T00:17:14.533Z,5.05
2023-05-01T00:19:44.221Z,4.70
2023-05-01T00:22:13.896Z,4.80
2023-05-01T00:24:48.105Z,5.38
2023-05-01T00:27:17.829Z,4.70
2023-05-01T00:29:47.532Z,4.90
2023-05-01T00:32:19.679Z,5.10
2023-05-01T00:34:49.659Z,4.70
2023-05-01T00:37:19.800Z,5.40
2023-05-01T00:39:52.260Z,4.70
2023-05-01T00:42:22.031Z,5.10
2023-05-01T00:44:51.703Z,4.65
2023-05-01T00:47:21.660Z,5.07
2023-05-01T00:49:52.765Z,5.40
2023-05-01T00:52:22.558Z,5.00
2023-05-01T00:54:55.034Z,5.45
2023-05-01T00:57:24.918Z,5.00
2023-05-01T00:59:54.792Z,5.47
2023-05-01T01:02:24.876Z,4.70
2023-05-01T01:04:54.616Z,5.87
2023-05-01T01:07:30.361Z,5.10
2023-05-01T01:10:10.816Z,5.63
2023-05-01T01:12:45.175Z,5.35
2023-05-01T01:15:21.345Z,5.45
2023-05-01T01:17:55.859Z,5.40
2023-05-01T01:20:33.502Z,5.80
2023-05-01T01:23:16.861Z,5.18
2023-05-01T01:26:07.347Z,5.78
2023-05-01T01:29:00.820Z,5.65
2023-05-01T01:31:36.507Z,5.47
2023-05-01T01:34:12.924Z,5.45
2023-05-01T01:36:45.887Z,5.20
2023-05-01T01:39:23.062Z,5.40
2023-05-01T01:41:54.512Z,5.30
2023-05-01T01:44:31.932Z,4.90
2023-05-01T01:47:02.837Z,5.95
2023-05-01T01:49:35.832Z,5.28
2023-05-01T01:52:06.633Z,5.45
2023-05-01T01:54:39.229Z,5.30
2023-05-01T01:57:10.680Z,5.35
2023-05-01T01:59:40.441Z,5.30
2023-05-01T02:02:11.590Z,5.95
2023-05-01T02:04:45.323Z,5.10
2023-05-01T02:07:15.384Z,5.53
2023-05-01T02:09:45.819Z,5.95
2023-05-01T02:12:16.061Z,5.68
2023-05-01T02:14:46.149Z,5.40
2023-05-01T02:17:16.814Z,5.10
2023-05-01T02:19:53.462Z,5.50
2023-05-01T02:22:25.826Z,6.13
2023-05-01T02:24:57.475Z,5.80
2023-05-01T02:27:31.371Z,5.80
2023-05-01T02:30:01.200Z,5.65
2023-05-01T02:32:32.101Z,5.68
2023-05-01T02:35:04.463Z,4.70
2023-05-01T02:37:34.616Z,4.82
2023-05-01T02:40:07.639Z,5.35
2023-05-01T02:42:40.194Z,6.90
2023-05-01T02:45:16.935Z,5.88
2023-05-01T02:47:47.259Z,5.88
2023-05-01T02:50:20.181Z,6.40
2023-05-01T02:52:50.266Z,5.63
2023-05-01T02:55:40.438Z,6.00
2023-05-01T02:58:10.186Z,6.32
2023-05-01T03:00:39.875Z,6.53
2023-05-01T03:03:09.728Z,6.15
2023-05-01T03:05:42.117Z,6.18
2023-05-01T03:08:12.915Z,6.17
2023-05-01T03:10:43.380Z,6.00
2023-05-01T03:13:13.225Z,6.13
2023-05-01T03:15:43.419Z,7.15
2023-05-01T03:18:13.310Z,6.13
2023-05-01T03:20:54.219Z,6.68
2023-05-01T03:23:24.484Z,6.15
2023-05-01T03:25:55.004Z,6.03
2023-05-01T03:28:25.664Z,6.10
2023-05-01T03:30:56.236Z,6.40
2023-05-01T03:33:26.851Z,6.25
2023-05-01T03:36:05.801Z,7.17
2023-05-01T03:38:37.182Z,6.15
2023-05-01T03:41:12.766Z,6.03
2023-05-01T03:44:02.399Z,6.50
2023-05-01T03:46:36.811Z,6.90
2023-05-01T03:49:08.163Z,6.30
2023-05-01T03:51:47.676Z,6.72
2023-05-01T03:54:17.541Z,6.75
2023-05-01T03:57:00.661Z,6.35
2023-05-01T03:59:30.428Z,6.53
2023-05-01T04:02:00.231Z,6.50
2023-05-01T04:04:33.357Z,6.35
2023-05-01T04:07:06.057Z,6.18
2023-05-01T04:09:36.028Z,6.20
2023-05-01T04:12:05.905Z,5.97
2023-05-01T04:14:35.864Z,5.85
2023-05-01T04:17:05.887Z,6.43
2023-05-01T04:19:38.817Z,6.55
2023-05-01T04:22:11.224Z,6.25
2023-05-01T04:24:42.355Z,6.20
2023-05-01T04:27:12.047Z,5.80
2023-05-01T04:29:41.893Z,6.00
2023-05-01T04:32:12.107Z,5.82
2023-05-01T04:34:41.785Z,6.40
2023-05-01T04:37:14.474Z,6.20
2023-05-01T04:39:45.026Z,6.40
2023-05-01T04:42:15.099Z,5.93
2023-05-01T04:44:45.002Z,6.40
2023-05-01T04:47:15.785Z,5.90
2023-05-01T04:49:45.504Z,5.90
2023-05-01T04:52:18.087Z,5.80
2023-05-01T04:54:58.159Z,6.57
2023-05-01T04:57:30.332Z,6.55
2023-05-01T05:00:00.604Z,6.60
2023-05-01T05:02:30.345Z,6.10
2023-05-01T05:05:00.105Z,6.93
2023-05-01T05:07:32.396Z,6.40
2023-05-01T05:10:25.173Z,6.50
2023-05-01T05:13:10.356Z,6.45
2023-05-01T05:15:41.787Z,6.32
2023-05-01T05:18:13.577Z,6.55
2023-05-01T05:20:43.415Z,6.75
2023-05-01T05:23:15.744Z,6.90
2023-05-01T05:25:45.517Z,7.70
2023-05-01T05:28:15.172Z,7.00
2023-05-01T05:30:47.083Z,7.22
2023-05-01T05:33:20.030Z,6.88
2023-05-01T05:35:49.835Z,7.50
2023-05-01T05:38:22.311Z,6.35
2023-05-01T05:40:56.708Z,6.47
2023-05-01T05:43:28.276Z,6.30
2023-05-01T05:46:02.386Z,6.30
2023-05-01T05:48:35.199Z,7.45
2023-05-01T05:51:05.157Z,6.72
2023-05-01T05:53:37.565Z,6.70
2023-05-01T05:56:07.850Z,6.88
2023-05-01T05:58:37.851Z,6.60
2023-05-01T06:01:09.435Z,6.70
2023-05-01T06:03:40.606Z,6.50
2023-05-01T06:06:11.404Z,6.85
2023-05-01T06:08:46.372Z,7.38
2023-05-01T06:11:16.593Z,7.03
2023-05-01T06:13:46.805Z,7.55
2023-05-01T06:16:17.067Z,7.40
2023-05-01T06:18:46.954Z,7.22
2023-05-01T06:21:16.753Z,7.53
2023-05-01T06:23:49.466Z,8.10
2023-05-01T06:26:26.299Z,8.27
2023-05-01T06:28:56.453Z,7.20
2023-05-01T06:31:27.333Z,8.20
2023-05-01T06:33:58.647Z,7.40
2023-05-01T06:36:51.288Z,8.40
2023-05-01T06:39:23.933Z,7.18
2023-05-01T06:41:53.652Z,7.43
2023-05-01T06:44:33.315Z,7.10
2023-05-01T06:47:04.748Z,8.20
2023-05-01T06:49:34.476Z,6.93
2023-05-01T06:52:04.352Z,6.97
2023-05-01T06:54:36.671Z,6.22
2023-05-01T06:57:06.515Z,5.50
2023-05-01T06:59:36.978Z,5.82
2023-05-01T07:02:06.743Z,5.30
2023-05-01T07:04:36.540Z,6.03
2023-05-01T07:07:06.238Z,5.13
2023-05-01T07:09:38.916Z,4.40
2023-05-01T07:12:08.949Z,4.90
2023-05-01T07:14:38.853Z,7.65
2023-05-01T07:17:09.265Z,5.10
2023-05-01T07:19:39.629Z,4.45
2023-05-01T07:22:09.257Z,5.03
2023-05-01T07:24:41.523Z,4.45
2023-05-01T07:27:11.230Z,3.60
2023-05-01T07:29:41.549Z,3.70
2023-05-01T07:32:11.254Z,3.30
2023-05-01T07:34:41.116Z,3.00
2023-05-01T07:37:11.000Z,3.08
2023-05-01T07:39:43.377Z,3.28
2023-05-01T07:42:13.086Z,3.40
2023-05-01T07:44:42.835Z,3.05
2023-05-01T07:47:12.533Z,3.50
2023-05-01T07:49:42.222Z,3.70
2023-05-01T07:52:11.829Z,3.10
2023-05-01T07:54:44.634Z,3.20
2023-05-01T07:57:14.616Z,3.72
2023-05-01T07:59:44.289Z,3.22
2023-05-01T08:02:14.124Z,3.20
2023-05-01T08:04:46.233Z,2.70
2023-05-01T08:07:16.002Z,3.50
2023-05-01T08:09:49.080Z,3.30
2023-05-01T08:12:18.874Z,3.15
2023-05-01T08:14:48.586Z,3.05
2023-05-01T08:17:18.295Z,2.70
2023-05-01T08:19:48.008Z,3.10
2023-05-01T08:22:17.657Z,3.50
2023-05-01T08:24:49.917Z,3.03
2023-05-01T08:27:19.651Z,3.17
2023-05-01T08:29:49.899Z,3.28
2023-05-01T08:32:21.638Z,3.08
2023-05-01T08:34:51.387Z,3.03
2023-05-01T08:37:21.200Z,3.20
2023-05-01T08:39:54.018Z,2.90
2023-05-01T08:42:24.369Z,3.40
2023-05-01T08:44:59.405Z,2.80
2023-05-01T08:47:30.598Z,2.78
2023-05-01T08:50:00.828Z,2.97
2023-05-01T08:52:31.892Z,3.20
2023-05-01T08:55:05.346Z,2.85
2023-05-01T08:57:35.530Z,3.00
2023-05-01T09:00:07.369Z,2.95
2023-05-01T09:02:38.026Z,3.00
2023-05-01T09:05:09.496Z,2.90
2023-05-01T09:07:39.945Z,3.28
2023-05-01T09:10:13.073Z,3.00
2023-05-01T09:12:45.024Z,2.97
2023-05-01T09:15:15.465Z,2.70
2023-05-01T09:17:45.825Z,3.28
2023-05-01T09:20:15.606Z,2.35
2023-05-01T09:22:45.767Z,2.70
2023-05-01T09:25:18.339Z,3.00
2023-05-01T09:27:48.777Z,2.88
2023-05-01T09:30:34.510Z,2.70
2023-05-01T09:33:08.743Z,3.15
2023-05-01T09:35:56.187Z,2.70
2023-05-01T09:38:27.964Z,2.70
2023-05-01T09:41:07.339Z,2.50
2023-05-01T09:43:37.183Z,3.00
2023-05-01T09:46:09.788Z,3.10
2023-05-01T09:48:42.717Z,2.60
2023-05-01T09:51:27.134Z,2.88
2023-05-01T09:53:58.718Z,3.00
2023-05-01T09:56:33.286Z,3.45
2023-05-01T09:59:18.104Z,2.50
2023-05-01T10:01:50.651Z,2.55
2023-05-01T10:04:20.658Z,2.70
2023-05-01T10:06:50.612Z,3.50
2023-05-01T10:09:30.516Z,2.80
2023-05-01T10:12:03.560Z,2.80
2023-05-01T10:14:38.555Z,2.75
2023-05-01T10:17:20.943Z,2.40
2023-05-01T10:19:51.565Z,2.53
2023-05-01T10:22:22.069Z,2.28
2023-05-01T10:24:52.371Z,2.70
2023-05-01T10:27:26.183Z,2.80
2023-05-01T10:29:56.961Z,2.40
2023-05-01T10:32:26.907Z,2.20
2023-05-01T10:35:00.851Z,2.60
2023-05-01T10:37:36.298Z,2.80
2023-05-01T10:40:35.845Z,2.30
2023-05-01T10:43:26.096Z,2.75
2023-05-01T10:45:56.620Z,2.70
2023-05-01T10:48:56.784Z,2.70
2023-05-01T10:51:28.420Z,2.50
2023-05-01T10:54:29.006Z,2.67
2023-05-01T10:57:01.404Z,2.60
2023-05-01T11:00:11.351Z,2.30
2023-05-01T11:02:43.720Z,1.92
2023-05-01T11:05:13.494Z,1.83
2023-05-01T11:07:43.144Z,2.00
2023-05-01T11:10:30.349Z,2.13
2023-05-01T11:13:00.110Z,2.47
2023-05-01T11:15:31.367Z,2.27
2023-05-01T11:18:06.181Z,2.20
2023-05-01T11:20:52.186Z,1.90
2023-05-01T11:23:27.434Z,2.17
2023-05-01T11:26:10.198Z,2.40
2023-05-01T11:28:41.440Z,2.28
2023-05-01T11:31:11.683Z,1.90
2023-05-01T11:33:44.054Z,1.88
2023-05-01T11:36:14.256Z,1.80
2023-05-01T11:38:52.758Z,2.10
2023-05-01T11:41:23.818Z,2.40
2023-05-01T11:43:54.300Z,2.00
2023-05-01T11:46:28.000Z,2.40
2023-05-01T11:49:01.977Z,1.80
2023-05-01T11:51:32.611Z,1.70
2023-05-01T11:54:03.232Z,1.90
2023-05-01T11:56:33.678Z,2.20
2023-05-01T11:59:12.610Z,2.08
2023-05-01T12:01:44.590Z,1.92
2023-05-01T12:04:28.804Z,2.10
2023-05-01T12:07:01.330Z,1.83
2023-05-01T12:09:31.481Z,1.90
2023-05-01T12:12:03.474Z,1.65
2023-05-01T12:14:33.299Z,1.80
2023-05-01T12:17:04.185Z,1.90
2023-05-01T12:19:37.705Z,2.60
2023-05-01T12:22:10.584Z,2.00
2023-05-01T12:24:40.487Z,2.47
2023-05-01T12:27:10.654Z,2.58
2023-05-01T12:29:44.859Z,2.80
2023-05-01T12:32:14.636Z,2.70
2023-05-01T12:34:46.999Z,2.90
2023-05-01T12:37:17.140Z,2.50
2023-05-01T12:39:47.692Z,2.40
2023-05-01T12:42:18.788Z,2.15
2023-05-01T12:44:48.715Z,2.30
2023-05-01T12:47:18.429Z,2.40
2023-05-01T12:49:50.717Z,2.10
2023-05-01T12:52:29.701Z,2.47
2023-05-01T12:55:05.756Z,2.60
2023-05-01T12:57:35.571Z,2.30
2023-05-01T13:00:07.648Z,2.20
2023-05-01T13:02:37.487Z,2.40
2023-05-01T13:05:12.499Z,2.40
2023-05-01T13:07:42.753Z,2.28
2023-05-01T13:10:14.011Z,2.30
2023-05-01T13:12:47.545Z,2.50
2023-05-01T13:15:23.790Z,3.08
2023-05-01T13:17:54.149Z,2.30
2023-05-01T13:20:30.873Z,2.60
2023-05-01T13:23:00.581Z,2.22
2023-05-01T13:25:30.246Z,2.20
2023-05-01T13:27:59.975Z,2.30
2023-05-01T13:30:35.206Z,2.08
2023-05-01T13:33:07.924Z,2.00
2023-05-01T13:35:41.921Z,1.98
2023-05-01T13:38:14.178Z,2.17
2023-05-01T13:40:43.945Z,2.10
2023-05-01T13:43:17.140Z,2.10
2023-05-01T13:45:47.470Z,1.90
2023-05-01T13:48:19.972Z,1.90
2023-05-01T13:50:52.463Z,1.70
2023-05-01T13:53:22.114Z,1.73
2023-05-01T13:55:51.783Z,1.50
2023-05-01T13:58:21.526Z,1.77
2023-05-01T14:00:51.513Z,1.85
2023-05-01T14:03:22.262Z,2.05
2023-05-01T14:05:54.848Z,2.00
2023-05-01T14:08:29.806Z,2.00
2023-05-01T14:11:01.523Z,2.50
2023-05-01T14:13:31.418Z,2.60
2023-05-01T14:16:01.184Z,2.10
2023-05-01T14:18:30.884Z,2.00
2023-05-01T14:21:04.581Z,2.00
2023-05-01T14:23:35.127Z,2.10
2023-05-01T14:26:05.404Z,2.30
2023-05-01T14:28:35.123Z,2.60
2023-05-01T14:31:04.871Z,2.30
2023-05-01T14:33:34.557Z,2.00
2023-05-01T14:36:07.129Z,2.10
2023-05-01T14:38:39.396Z,2.55
2023-05-01T14:41:11.208Z,1.90
2023-05-01T14:43:44.484Z,2.00
2023-05-01T14:46:15.319Z,2.42
2023-05-01T14:48:45.545Z,2.03
2023-05-01T14:51:22.243Z,2.10
2023-05-01T14:53:51.985Z,1.90
2023-05-01T14:56:21.777Z,1.80
2023-05-01T14:58:52.259Z,2.00
2023-05-01T15:01:22.117Z,2.20
2023-05-01T15:03:53.289Z,3.05
2023-05-01T15:06:26.466Z,3.30
2023-05-01T15:08:56.592Z,4.70
2023-05-01T15:11:26.377Z,4.60
2023-05-01T15:13:57.277Z,4.90
2023-05-01T15:16:27.687Z,4.55
2023-05-01T15:18:57.611Z,4.85
2023-05-01T15:21:29.864Z,4.80
2023-05-01T15:23:59.742Z,4.60
2023-05-01T15:26:29.591Z,4.35
2023-05-01T15:28:59.280Z,4.30
2023-05-01T15:31:30.760Z,5.40
2023-05-01T15:34:01.773Z,5.30
2023-05-01T15:36:34.933Z,4.85
2023-05-01T15:39:06.174Z,4.90
2023-05-01T15:41:36.527Z,5.50
2023-05-01T15:44:08.038Z,4.70
2023-05-01T15:46:37.959Z,4.80
2023-05-01T15:49:10.399Z,4.40
2023-05-01T15:51:42.687Z,4.60
2023-05-01T15:54:12.462Z,4.35
2023-05-01T15:56:42.136Z,5.17
2023-05-01T15:59:13.564Z,4.82
2023-05-01T16:01:43.385Z,4.20
2023-05-01T16:04:13.254Z,4.53
2023-05-01T16:06:46.202Z,4.32
2023-05-01T16:09:16.131Z,4.30
2023-05-01T16:11:45.798Z,3.80
2023-05-01T16:14:18.465Z,3.92
2023-05-01T16:16:48.299Z,4.30
2023-05-01T16:19:19.081Z,4.80
2023-05-01T16:21:51.493Z,3.80
2023-05-01T16:24:21.277Z,3.13
2023-05-01T16:26:51.034Z,3.53
2023-05-01T16:29:21.726Z,3.20
2023-05-01T16:31:51.424Z,3.50
2023-05-01T16:34:27.106Z,2.70
2023-05-01T16:36:59.383Z,2.90
2023-05-01T16:39:29.057Z,2.92
2023-05-01T16:41:58.849Z,2.55
2023-05-01T16:44:28.541Z,2.95
2023-05-01T16:46:59.270Z,2.17
2023-05-01T16:49:30.063Z,2.87
2023-05-01T16:52:04.030Z,2.80
2023-05-01T16:54:36.293Z,2.75
2023-05-01T16:57:06.242Z,2.33
2023-05-01T16:59:37.110Z,2.40
2023-05-01T17:02:07.643Z,2.50
2023-05-01T17:04:37.551Z,2.30
2023-05-01T17:07:10.117Z,2.40
2023-05-01T17:09:39.845Z,2.30
2023-05-01T17:12:09.464Z,2.20
2023-05-01T17:14:39.129Z,2.20
2023-05-01T17:17:09.535Z,2.40
2023-05-01T17:19:39.738Z,2.40
2023-05-01T17:22:12.381Z,2.40
2023-05-01T17:24:42.129Z,2.03
2023-05-01T17:27:12.437Z,2.67
2023-05-01T17:29:42.236Z,2.40
2023-05-01T17:34:42.038Z,2.30
2023-05-01T17:37:15.443Z,2.50
2023-05-01T17:39:45.272Z,2.50
2023-05-01T17:42:14.917Z,2.03
2023-05-01T17:44:44.670Z,2.10
2023-05-01T17:47:14.416Z,1.92
2023-05-01T17:49:44.127Z,2.40
2023-05-01T17:52:16.470Z,2.10
2023-05-01T17:54:46.244Z,2.28
2023-05-01T17:57:16.008Z,2.10
2023-05-01T17:59:45.726Z,2.22
2023-05-01T18:02:15.591Z,2.03
2023-05-01T18:04:46.080Z,2.70
2023-05-01T18:07:18.378Z,2.65
2023-05-01T18:09:48.124Z,2.90
2023-05-01T18:12:17.841Z,2.58
2023-05-01T18:14:47.530Z,2.10
2023-05-01T18:17:17.281Z,2.13
2023-05-01T18:19:46.986Z,2.40
2023-05-01T18:22:19.320Z,2.20
2023-05-01T18:24:49.505Z,2.30
2023-05-01T18:27:19.547Z,2.38
2023-05-01T18:29:49.168Z,2.40
2023-05-01T18:32:18.974Z,2.35
2023-05-01T18:34:51.453Z,2.80
2023-05-01T18:37:25.910Z,2.50
2023-05-01T18:39:55.627Z,2.10
2023-05-01T18:42:25.353Z,3.05
2023-05-01T18:44:56.874Z,3.00
2023-05-01T18:47:26.902Z,2.60
2023-05-01T18:49:56.661Z,2.60
2023-05-01T18:52:28.992Z,2.70
2023-05-01T18:54:59.197Z,2.70
2023-05-01T18:57:30.225Z,2.42
2023-05-01T19:00:01.416Z,2.60
2023-05-01T19:02:31.709Z,3.30
2023-05-01T19:05:01.443Z,3.28
2023-05-01T19:07:33.837Z,3.50
2023-05-01T19:10:03.808Z,2.90
2023-05-01T19:12:33.500Z,3.05
2023-05-01T19:15:03.384Z,3.20
2023-05-01T19:17:34.143Z,3.67
2023-05-01T19:20:04.737Z,3.88
2023-05-01T19:22:37.238Z,3.10
2023-05-01T19:25:08.398Z,3.72
2023-05-01T19:27:38.105Z,3.60
2023-05-01T19:30:09.148Z,3.30
2023-05-01T19:32:39.033Z,3.45
2023-05-01T19:35:11.355Z,3.80
2023-05-01T19:37:43.720Z,3.50
2023-05-01T19:40:14.465Z,3.55
2023-05-01T19:42:44.479Z,3.70
2023-05-01T19:45:17.070Z,4.00
2023-05-01T19:47:48.225Z,3.58
2023-05-01T19:50:20.277Z,3.90
2023-05-01T19:52:52.588Z,3.90
2023-05-01T19:55:22.635Z,4.22
2023-05-01T19:57:52.775Z,3.63
2023-05-01T20:00:22.964Z,3.63
2023-05-01T20:02:53.031Z,4.20
2023-05-01T20:05:28.086Z,3.92
2023-05-01T20:08:01.048Z,4.72
2023-05-01T20:10:30.832Z,5.03
2023-05-01T20:13:00.505Z,5.50
2023-05-01T20:15:30.410Z,5.55
2023-05-01T20:18:00.238Z,5.30
2023-05-01T20:20:30.487Z,4.80
2023-05-01T20:23:15.409Z,4.60
2023-05-01T20:25:46.530Z,5.15
2023-05-01T20:28:17.015Z,5.07
2023-05-01T20:30:48.024Z,5.10
2023-05-01T20:33:18.214Z,5.65
2023-05-01T20:35:47.979Z,5.75
2023-05-01T20:38:20.295Z,5.95
2023-05-01T20:40:50.807Z,6.38
2023-05-01T20:43:20.475Z,6.88
2023-05-01T20:45:50.370Z,7.75
2023-05-01T20:48:20.147Z,7.50
2023-05-01T20:50:49.999Z,7.50
2023-05-01T20:53:22.494Z,8.10
2023-05-01T20:55:52.716Z,8.60
2023-05-01T20:58:22.500Z,8.73
2023-05-01T21:00:52.216Z,9.50
2023-05-01T21:03:21.892Z,8.77
2023-05-01T21:05:51.630Z,8.80
2023-05-01T21:08:24.059Z,8.32
2023-05-01T21:10:53.859Z,9.05
2023-05-01T21:13:24.940Z,9.20
2023-05-01T21:15:55.221Z,9.05
2023-05-01T21:18:24.962Z,9.43
2023-05-01T21:20:54.858Z,9.07
2023-05-01T21:23:28.822Z,9.73
2023-05-01T21:25:58.586Z,10.40
2023-05-01T21:28:28.372Z,9.00
2023-05-01T21:30:58.160Z,9.33
2023-05-01T21:33:28.587Z,9.43
2023-05-01T21:35:58.212Z,10.35
2023-05-01T21:38:31.374Z,11.45
2023-05-01T21:41:01.107Z,11.48
2023-05-01T21:43:31.003Z,11.25
2023-05-01T21:46:00.819Z,12.20
2023-05-01T21:48:30.689Z,12.37
2023-05-01T21:51:00.774Z,12.20
2023-05-01T21:53:35.177Z,12.40
2023-05-01T21:56:05.206Z,11.80
2023-05-01T21:58:35.076Z,12.48
2023-05-01T22:01:04.853Z,12.15
2023-05-01T22:03:34.879Z,13.57
2023-05-01T22:06:05.086Z,13.48
2023-05-01T22:08:37.450Z,13.55
2023-05-01T22:11:08.528Z,13.85
2023-05-01T22:13:38.370Z,13.10
2023-05-01T22:16:09.053Z,13.77
2023-05-01T22:18:38.819Z,14.43
2023-05-01T22:21:08.659Z,15.20
2023-05-01T22:23:40.981Z,15.63
2023-05-01T22:26:10.704Z,15.98
2023-05-01T22:28:40.431Z,15.05
2023-05-01T22:31:10.173Z,14.55
2023-05-01T22:33:40.580Z,14.30
2023-05-01T22:36:10.451Z,15.05
2023-05-01T22:38:42.773Z,14.70
2023-05-01T22:41:12.661Z,14.40
2023-05-01T22:43:42.301Z,15.07
2023-05-01T22:46:12.008Z,14.52
2023-05-01T22:48:41.745Z,14.23
2023-05-01T22:51:11.436Z,14.65
2023-05-01T22:53:43.750Z,14.73
2023-05-01T22:56:13.623Z,15.07
2023-05-01T22:58:43.376Z,15.25
2023-05-01T23:01:13.414Z,15.20
2023-05-01T23:03:43.399Z,15.70
2023-05-01T23:06:13.155Z,15.77
2023-05-01T23:08:45.520Z,15.57
2023-05-01T23:11:18.988Z,14.85
2023-05-01T23:13:50.062Z,15.77
2023-05-01T23:16:20.117Z,15.55
2023-05-01T23:18:49.901Z,15.70
2023-05-01T23:21:21.648Z,16.50
2023-05-01T23:23:54.437Z,14.93
2023-05-01T23:26:27.211Z,16.52
2023-05-01T23:28:56.977Z,16.88
2023-05-01T23:31:28.242Z,16.52
2023-05-01T23:33:58.257Z,17.75
2023-05-01T23:36:28.262Z,17.10
2023-05-01T23:39:00.538Z,19.48
2023-05-01T23:41:31.398Z,19.63
2023-05-01T23:44:01.146Z,19.20
2023-05-01T23:46:31.406Z,20.27
2023-05-01T23:49:01.113Z,20.97
2023-05-01T23:51:31.551Z,20.50
2023-05-01T23:54:04.447Z,20.77
2023-05-01T23:56:34.317Z,19.85
2023-05-01T23:59:04.222Z,21.57
